createdAt,value
2019-01-13T00:00:11.602Z,10.83
2019-01-13T00:02:36.907Z,12.27
2019-01-13T00:05:06.212Z,13.63
2019-01-13T00:07:35.231Z,11.90
2019-01-13T00:10:04.925Z,11.33
2019-01-13T00:12:35.625Z,15.33
2019-01-13T00:15:05.012Z,13.93
2019-01-13T00:17:33.826Z,19.43
2019-01-13T00:20:02.582Z,16.00
2019-01-13T00:22:31.479Z,13.97
2019-01-13T00:25:00.305Z,21.93
2019-01-13T00:27:29.082Z,15.70
2019-01-13T00:29:58.030Z,17.60
2019-01-13T00:32:26.859Z,18.90
2019-01-13T00:34:55.593Z,16.47
2019-01-13T00:37:24.505Z,17.83
2019-01-13T00:39:53.213Z,17.87
2019-01-13T00:42:21.930Z,15.03
2019-01-13T00:44:50.718Z,17.40
2019-01-13T00:47:19.494Z,15.03
2019-01-13T00:49:48.291Z,17.53
2019-01-13T00:52:17.273Z,16.50
2019-01-13T00:54:46.183Z,16.97
2019-01-13T00:57:15.022Z,14.93
2019-01-13T00:59:44.019Z,19.03
2019-01-13T01:02:12.946Z,15.63
2019-01-13T01:04:41.803Z,16.20
2019-01-13T01:07:10.823Z,15.43
2019-01-13T01:09:39.780Z,14.70
2019-01-13T01:12:08.644Z,15.23
2019-01-13T01:14:37.643Z,13.53
2019-01-13T01:17:06.563Z,16.03
2019-01-13T01:19:35.506Z,14.27
2019-01-13T01:22:04.943Z,13.03
2019-01-13T01:24:33.923Z,12.27
2019-01-13T01:27:02.827Z,10.87
2019-01-13T01:29:31.798Z,14.20
2019-01-13T01:32:00.778Z,12.00
2019-01-13T01:34:29.637Z,12.90
2019-01-13T01:36:58.583Z,14.47
2019-01-13T01:39:27.591Z,16.03
2019-01-13T01:41:56.498Z,12.17
2019-01-13T01:44:25.269Z,16.40
2019-01-13T01:46:54.663Z,17.10
2019-01-13T01:49:23.458Z,12.70
2019-01-13T01:51:52.345Z,13.33
2019-01-13T01:54:21.603Z,14.60
2019-01-13T01:56:50.449Z,14.30
2019-01-13T01:59:19.193Z,16.23
2019-01-13T02:01:47.995Z,15.67
2019-01-13T02:04:16.792Z,16.43
2019-01-13T02:06:45.545Z,15.50
2019-01-13T02:09:14.393Z,19.10
2019-01-13T02:11:43.493Z,15.10
2019-01-13T02:14:12.297Z,18.27
2019-01-13T02:16:41.168Z,13.03
2019-01-13T02:19:10.075Z,13.93
2019-01-13T02:21:38.883Z,11.53
2019-01-13T02:24:07.837Z,11.07
2019-01-13T02:26:36.591Z,14.63
2019-01-13T02:29:05.518Z,12.73
2019-01-13T02:31:34.450Z,9.47
2019-01-13T02:34:03.270Z,10.47
2019-01-13T02:36:32.145Z,11.33
2019-01-13T02:39:01.121Z,12.83
2019-01-13T02:41:29.915Z,15.90
2019-01-13T02:43:58.841Z,12.17
2019-01-13T02:46:27.743Z,12.07
2019-01-13T02:48:56.572Z,13.23
2019-01-13T02:51:25.633Z,13.33
2019-01-13T02:53:54.429Z,17.07
2019-01-13T02:56:23.270Z,11.93
2019-01-13T02:58:52.147Z,11.50
2019-01-13T03:01:21.183Z,11.03
2019-01-13T03:03:50.178Z,10.63
2019-01-13T03:06:19.094Z,10.50
2019-01-13T03:08:47.940Z,9.80
2019-01-13T03:11:16.824Z,9.87
2019-01-13T03:13:45.598Z,10.80
2019-01-13T03:16:14.392Z,10.50
2019-01-13T03:18:43.150Z,11.23
2019-01-13T03:21:11.947Z,10.47
2019-01-13T03:23:40.743Z,11.53
2019-01-13T03:26:09.609Z,10.43
2019-01-13T03:28:38.416Z,9.20
2019-01-13T03:31:11.747Z,10.63
2019-01-13T03:33:37.818Z,9.60
2019-01-13T03:36:06.975Z,11.40
2019-01-13T03:38:35.763Z,8.73
2019-01-13T03:41:05.104Z,10.83
2019-01-13T03:43:33.951Z,8.20
2019-01-13T03:46:02.828Z,8.50
2019-01-13T03:48:31.948Z,9.53
2019-01-13T03:51:00.833Z,12.10
2019-01-13T03:53:29.643Z,8.33
2019-01-13T03:55:58.488Z,9.17
2019-01-13T03:58:27.227Z,7.83
2019-01-13T04:00:56.005Z,10.40
2019-01-13T04:03:24.855Z,8.83
2019-01-13T04:05:53.758Z,9.80
2019-01-13T04:08:22.654Z,7.03
2019-01-13T04:10:51.519Z,8.60
2019-01-13T04:13:20.577Z,7.33
2019-01-13T04:15:59.425Z,7.57
2019-01-13T04:18:28.332Z,8.83
2019-01-13T04:20:57.147Z,7.20
2019-01-13T04:23:25.973Z,8.33
2019-01-13T04:25:54.879Z,8.13
2019-01-13T04:28:23.722Z,7.60
2019-01-13T04:30:52.807Z,5.67
2019-01-13T04:33:21.779Z,5.43
2019-01-13T04:35:50.600Z,6.80
2019-01-13T04:38:19.478Z,6.63
2019-01-13T04:40:48.339Z,6.60
2019-01-13T04:43:17.129Z,5.77
2019-01-13T04:45:46.018Z,7.23
2019-01-13T04:48:14.867Z,6.47
2019-01-13T04:50:43.700Z,8.87
2019-01-13T04:53:12.658Z,7.40
2019-01-13T04:55:41.378Z,7.40
2019-01-13T04:58:10.202Z,7.60
2019-01-13T05:00:39.111Z,7.97
2019-01-13T05:03:07.843Z,6.13
2019-01-13T05:05:36.773Z,6.47
2019-01-13T05:08:05.663Z,5.73
2019-01-13T05:10:34.514Z,8.03
2019-01-13T05:13:03.549Z,14.33
2019-01-13T05:15:32.412Z,11.27
2019-01-13T05:18:04.358Z,16.77
2019-01-13T05:20:33.255Z,12.20
2019-01-13T05:23:02.031Z,7.17
2019-01-13T05:25:31.278Z,27.77
2019-01-13T05:28:00.117Z,20.17
2019-01-13T05:30:28.938Z,12.70
2019-01-13T05:32:57.695Z,7.97
2019-01-13T05:35:26.503Z,8.80
2019-01-13T05:37:55.376Z,16.87
2019-01-13T05:40:24.212Z,7.67
2019-01-13T05:42:53.080Z,23.47
2019-01-13T05:45:41.065Z,10.07
2019-01-13T05:48:09.954Z,10.70
2019-01-13T05:50:38.652Z,7.80
2019-01-13T05:53:07.658Z,7.30
2019-01-13T05:55:36.658Z,9.60
2019-01-13T05:58:05.422Z,13.10
2019-01-13T06:00:42.048Z,9.97
2019-01-13T06:03:10.878Z,11.80
2019-01-13T06:05:39.665Z,10.03
2019-01-13T06:08:08.545Z,9.77
2019-01-13T06:10:37.282Z,10.53
2019-01-13T06:13:06.049Z,7.33
2019-01-13T06:15:34.954Z,10.47
2019-01-13T06:18:03.768Z,9.50
2019-01-13T06:20:32.602Z,9.07
2019-01-13T06:23:01.363Z,7.23
2019-01-13T06:25:30.103Z,5.60
2019-01-13T06:28:00.570Z,10.53
2019-01-13T06:30:29.328Z,16.00
2019-01-13T06:32:58.064Z,9.60
2019-01-13T06:35:26.772Z,7.93
2019-01-13T06:37:58.579Z,10.80
2019-01-13T06:40:27.393Z,9.13
2019-01-13T06:42:56.108Z,8.63
2019-01-13T06:45:25.454Z,11.20
2019-01-13T06:47:54.317Z,9.37
2019-01-13T06:50:23.830Z,17.13
2019-01-13T06:52:52.681Z,9.50
2019-01-13T06:55:21.495Z,7.83
2019-01-13T06:57:50.360Z,13.57
2019-01-13T07:00:23.287Z,8.13
2019-01-13T07:02:59.727Z,6.40
2019-01-13T07:05:28.447Z,10.90
2019-01-13T07:07:57.583Z,5.73
2019-01-13T07:10:26.335Z,7.43
2019-01-13T07:12:56.704Z,13.37
2019-01-13T07:15:25.593Z,10.13
2019-01-13T07:17:54.474Z,9.10
2019-01-13T07:20:23.310Z,7.77
2019-01-13T07:23:02.586Z,7.37
2019-01-13T07:25:31.856Z,6.27
2019-01-13T07:28:00.688Z,8.10
2019-01-13T07:30:29.591Z,6.40
2019-01-13T07:32:58.367Z,5.53
2019-01-13T07:35:27.133Z,7.23
2019-01-13T07:37:56.113Z,10.57
2019-01-13T07:40:24.991Z,8.57
2019-01-13T07:42:54.340Z,8.53
2019-01-13T07:45:27.204Z,6.20
2019-01-13T07:47:56.037Z,6.87
2019-01-13T07:50:24.950Z,9.00
2019-01-13T07:52:53.762Z,9.17
2019-01-13T07:55:23.201Z,7.97
2019-01-13T07:57:52.165Z,8.00
2019-01-13T08:00:22.150Z,8.60
2019-01-13T08:02:50.968Z,9.33
2019-01-13T08:05:19.992Z,10.60
2019-01-13T08:07:48.894Z,10.67
2019-01-13T08:10:17.793Z,9.97
2019-01-13T08:12:46.635Z,9.23
2019-01-13T08:15:16.797Z,8.80
2019-01-13T08:17:45.687Z,9.13
2019-01-13T08:20:16.311Z,9.07
2019-01-13T08:22:45.166Z,8.87
2019-01-13T08:25:14.117Z,13.47
2019-01-13T08:27:42.970Z,13.30
2019-01-13T08:30:13.456Z,12.43
2019-01-13T08:32:42.225Z,10.17
2019-01-13T08:35:11.102Z,9.43
2019-01-13T08:37:39.935Z,10.00
2019-01-13T08:40:10.450Z,10.63
2019-01-13T08:42:39.403Z,11.17
2019-01-13T08:45:08.697Z,12.47
2019-01-13T08:47:37.562Z,10.40
2019-01-13T08:50:07.487Z,13.67
2019-01-13T08:52:36.263Z,12.90
2019-01-13T08:55:05.782Z,10.43
2019-01-13T08:57:34.636Z,12.93
2019-01-13T09:00:04.748Z,13.47
2019-01-13T09:02:33.612Z,16.20
2019-01-13T09:05:02.942Z,20.20
2019-01-13T09:07:31.861Z,18.43
2019-01-13T09:10:00.652Z,20.23
2019-01-13T09:12:29.521Z,20.83
2019-01-13T09:14:58.351Z,20.03
2019-01-13T09:17:27.329Z,17.60
2019-01-13T09:19:56.419Z,15.60
2019-01-13T09:22:25.262Z,18.13
2019-01-13T09:24:54.421Z,18.63
2019-01-13T09:27:24.022Z,17.50
2019-01-13T09:29:53.105Z,20.67
2019-01-13T09:32:21.968Z,17.93
2019-01-13T09:34:50.923Z,23.40
2019-01-13T09:37:19.800Z,15.53
2019-01-13T09:39:48.680Z,14.50
2019-01-13T09:42:17.746Z,14.77
2019-01-13T09:44:46.674Z,15.37
2019-01-13T09:47:15.527Z,14.43
2019-01-13T09:49:49.878Z,10.83
2019-01-13T09:52:14.919Z,11.07
2019-01-13T09:54:44.052Z,14.67
2019-01-13T09:57:12.858Z,25.07
2019-01-13T09:59:41.610Z,18.33
2019-01-13T10:02:10.508Z,14.83
2019-01-13T10:04:40.322Z,13.33
2019-01-13T10:07:09.333Z,18.80
2019-01-13T10:09:38.215Z,18.47
2019-01-13T10:12:07.032Z,15.83
2019-01-13T10:14:35.934Z,16.80
2019-01-13T10:17:04.873Z,20.60
2019-01-13T10:19:34.567Z,14.27
2019-01-13T10:22:03.496Z,15.33
2019-01-13T10:24:32.275Z,13.90
2019-01-13T10:27:01.207Z,13.70
2019-01-13T10:29:40.032Z,14.17
2019-01-13T10:32:21.057Z,12.93
2019-01-13T10:35:04.763Z,13.90
2019-01-13T10:38:08.375Z,12.50
2019-01-13T10:40:58.314Z,13.17
2019-01-13T10:46:40.425Z,11.03
2019-01-13T10:49:09.294Z,9.63
2019-01-13T10:51:38.197Z,10.73
2019-01-13T10:54:09.188Z,12.10
2019-01-13T10:56:37.694Z,10.33
2019-01-13T10:59:06.574Z,10.07
2019-01-13T11:01:35.533Z,10.10
2019-01-13T11:04:22.393Z,9.90
2019-01-13T11:06:51.328Z,15.73
2019-01-13T11:09:20.241Z,15.80
2019-01-13T11:11:49.209Z,16.10
2019-01-13T11:14:18.062Z,13.07
2019-01-13T11:16:46.969Z,15.97
2019-01-13T11:19:15.929Z,12.93
2019-01-13T11:21:44.874Z,12.70
2019-01-13T11:24:13.788Z,17.00
2019-01-13T11:26:42.728Z,27.10
2019-01-13T11:29:11.702Z,23.63
2019-01-13T11:31:40.610Z,17.00
2019-01-13T11:34:09.512Z,25.40
2019-01-13T11:36:38.566Z,15.13
2019-01-13T11:39:10.320Z,14.70
2019-01-13T11:41:39.669Z,20.77
2019-01-13T11:44:08.720Z,21.07
2019-01-13T11:46:37.776Z,14.50
2019-01-13T11:49:06.791Z,21.17
2019-01-13T11:51:39.570Z,23.83
2019-01-13T11:54:09.491Z,25.90
2019-01-13T11:56:38.578Z,20.73
2019-01-13T11:59:08.603Z,18.30
2019-01-13T12:01:38.510Z,20.63
2019-01-13T12:04:07.900Z,17.13
2019-01-13T12:06:36.985Z,17.97
2019-01-13T12:09:07.160Z,14.80
2019-01-13T12:11:35.976Z,14.20
2019-01-13T12:14:04.965Z,11.23
2019-01-13T12:16:34.124Z,13.27
2019-01-13T12:19:02.969Z,13.13
2019-01-13T12:21:33.117Z,10.90
2019-01-13T12:24:02.118Z,13.27
2019-01-13T12:26:37.593Z,7.97
2019-01-13T12:29:06.526Z,9.30
2019-01-13T12:31:35.434Z,5.20
2019-01-13T12:34:04.359Z,10.70
2019-01-13T12:36:33.449Z,13.13
2019-01-13T12:39:03.999Z,9.23
2019-01-13T12:41:32.989Z,10.77
2019-01-13T12:44:01.817Z,10.87
2019-01-13T12:46:30.745Z,12.47
2019-01-13T12:48:59.801Z,17.60
2019-01-13T12:51:30.653Z,14.40
2019-01-13T12:53:59.513Z,11.60
2019-01-13T12:56:28.403Z,11.87
2019-01-13T12:58:57.232Z,10.37
2019-01-13T13:01:26.579Z,9.73
2019-01-13T13:03:55.725Z,8.40
2019-01-13T13:06:28.735Z,9.50
2019-01-13T13:09:02.327Z,8.90
2019-01-13T13:11:33.796Z,11.30
2019-01-13T13:14:03.100Z,7.27
2019-01-13T13:16:32.137Z,8.13
2019-01-13T13:19:01.208Z,9.37
2019-01-13T13:21:30.153Z,7.63
2019-01-13T13:23:59.054Z,8.33
2019-01-13T13:26:31.697Z,7.60
2019-01-13T13:29:04.720Z,10.00
2019-01-13T13:31:36.387Z,15.30
2019-01-13T13:34:10.031Z,10.57
2019-01-13T13:36:38.953Z,10.47
2019-01-13T13:39:09.712Z,9.63
2019-01-13T13:41:40.622Z,17.20
2019-01-13T13:44:28.387Z,13.50
2019-01-13T13:46:57.336Z,12.70
2019-01-13T13:49:26.482Z,11.10
2019-01-13T13:51:56.894Z,11.43
2019-01-13T13:54:26.389Z,9.03
2019-01-13T13:57:00.201Z,11.77
2019-01-13T13:59:31.602Z,15.83
2019-01-13T14:02:03.037Z,14.33
2019-01-13T14:04:33.125Z,13.77
2019-01-13T14:07:02.202Z,13.27
2019-01-13T14:09:31.285Z,19.03
2019-01-13T14:12:00.297Z,22.77
2019-01-13T14:14:29.647Z,22.60
2019-01-13T14:16:58.808Z,20.83
2019-01-13T14:19:28.018Z,24.50
2019-01-13T14:21:58.397Z,18.07
2019-01-13T14:24:27.868Z,18.73
2019-01-13T14:26:56.805Z,16.57
2019-01-13T14:29:26.788Z,14.97
2019-01-13T14:31:55.763Z,17.67
2019-01-13T14:34:24.825Z,17.73
2019-01-13T14:36:53.974Z,23.90
2019-01-13T14:39:23.013Z,14.73
2019-01-13T14:41:52.443Z,15.33
2019-01-13T14:44:21.481Z,14.00
2019-01-13T14:46:50.452Z,18.03
2019-01-13T14:49:19.521Z,32.93
2019-01-13T14:51:48.815Z,14.90
2019-01-13T14:54:17.834Z,17.23
2019-01-13T14:56:47.583Z,33.30
2019-01-13T14:59:16.567Z,26.07
2019-01-13T15:01:45.728Z,14.20
2019-01-13T15:04:14.766Z,15.40
2019-01-13T15:06:46.330Z,19.43
2019-01-13T15:09:15.628Z,19.00
2019-01-13T15:11:45.384Z,17.07
2019-01-13T15:14:14.455Z,12.83
2019-01-13T15:16:43.362Z,20.40
2019-01-13T15:19:12.492Z,13.27
2019-01-13T15:21:41.451Z,13.07
2019-01-13T15:24:10.696Z,13.00
2019-01-13T15:26:41.766Z,14.63
2019-01-13T15:29:11.820Z,11.67
2019-01-13T15:31:43.848Z,13.60
2019-01-13T15:34:13.095Z,13.20
2019-01-13T15:36:42.308Z,19.17
2019-01-13T15:39:12.544Z,17.17
2019-01-13T15:41:41.996Z,18.60
2019-01-13T15:44:11.654Z,15.90
2019-01-13T15:46:40.745Z,16.00
2019-01-13T15:49:09.801Z,17.30
2019-01-13T15:51:39.258Z,16.00
2019-01-13T15:54:08.311Z,16.97
2019-01-13T15:56:37.442Z,19.53
2019-01-13T15:59:09.363Z,21.37
2019-01-13T16:01:38.562Z,20.97
2019-01-13T16:04:14.323Z,15.77
2019-01-13T16:06:39.490Z,12.60
2019-01-13T16:09:09.672Z,14.67
2019-01-13T16:11:42.174Z,14.17
2019-01-13T16:14:14.548Z,16.80
2019-01-13T16:16:47.935Z,13.60
2019-01-13T16:19:17.038Z,20.23
2019-01-13T16:21:46.906Z,16.07
2019-01-13T16:24:18.822Z,10.83
2019-01-13T16:26:49.073Z,11.23
2019-01-13T16:29:20.116Z,14.23
2019-01-13T16:31:51.282Z,13.77
2019-01-13T16:34:24.189Z,15.93
2019-01-13T16:36:55.458Z,15.83
2019-01-13T16:39:24.694Z,11.23
2019-01-13T16:42:01.083Z,9.77
2019-01-13T16:44:30.388Z,9.00
2019-01-13T16:47:02.554Z,11.93
2019-01-13T16:49:38.199Z,11.00
2019-01-13T16:52:10.211Z,10.27
2019-01-13T16:54:40.620Z,10.13
2019-01-13T16:57:14.115Z,10.43
2019-01-13T16:59:45.567Z,9.67
2019-01-13T17:02:17.883Z,11.30
2019-01-13T17:04:51.054Z,10.43
2019-01-13T17:07:21.259Z,7.87
2019-01-13T17:09:50.718Z,10.27
2019-01-13T17:12:21.944Z,10.17
2019-01-13T17:14:54.885Z,11.13
2019-01-13T17:17:23.799Z,12.80
2019-01-13T17:19:55.988Z,12.43
2019-01-13T17:22:29.298Z,14.47
2019-01-13T17:25:01.775Z,10.40
2019-01-13T17:27:30.986Z,11.53
2019-01-13T17:30:00.198Z,15.67
2019-01-13T17:32:29.452Z,12.70
2019-01-13T17:35:02.180Z,13.87
2019-01-13T17:37:35.783Z,12.63
2019-01-13T17:40:06.394Z,13.47
2019-01-13T17:42:38.642Z,10.57
2019-01-13T17:45:10.704Z,11.37
2019-01-13T17:47:41.096Z,17.97
2019-01-13T17:50:14.421Z,14.33
2019-01-13T17:52:45.580Z,13.47
2019-01-13T17:55:16.287Z,14.70
2019-01-13T17:57:47.056Z,12.73
2019-01-13T18:00:36.988Z,12.10
2019-01-13T18:03:08.185Z,12.90
2019-01-13T18:05:42.676Z,12.83
2019-01-13T18:08:16.105Z,11.40
2019-01-13T18:10:48.468Z,10.87
2019-01-13T18:13:22.214Z,9.60
2019-01-13T18:15:53.556Z,12.90
2019-01-13T18:18:24.037Z,13.03
2019-01-13T18:20:59.776Z,14.90
2019-01-13T18:23:31.066Z,12.90
2019-01-13T18:26:04.196Z,13.40
2019-01-13T18:28:34.034Z,14.83
2019-01-13T18:31:08.920Z,18.40
2019-01-13T18:33:41.279Z,14.93
2019-01-13T18:36:11.718Z,13.03
2019-01-13T18:38:44.852Z,15.37
2019-01-13T18:41:13.948Z,12.87
2019-01-13T18:43:44.816Z,14.73
2019-01-13T18:46:17.053Z,14.63
2019-01-13T18:48:48.436Z,15.20
2019-01-13T18:51:19.234Z,20.97
2019-01-13T18:53:49.645Z,17.40
2019-01-13T18:56:26.554Z,22.57
2019-01-13T18:58:59.819Z,26.80
2019-01-13T19:01:29.156Z,19.17
2019-01-13T19:03:58.106Z,20.40
2019-01-13T19:06:31.148Z,16.30
2019-01-13T19:09:01.670Z,15.00
2019-01-13T19:11:39.730Z,19.60
2019-01-13T19:14:22.195Z,16.83
2019-01-13T19:16:55.300Z,15.23
2019-01-13T19:19:24.326Z,12.63
2019-01-13T19:21:53.995Z,15.07
2019-01-13T19:24:23.054Z,18.00
2019-01-13T19:26:55.480Z,17.40
2019-01-13T19:29:27.121Z,15.33
2019-01-13T19:31:59.680Z,16.60
2019-01-13T19:34:33.395Z,13.23
2019-01-13T19:37:04.084Z,14.47
2019-01-13T19:39:33.550Z,15.17
2019-01-13T19:42:04.189Z,14.37
2019-01-13T19:44:34.770Z,14.90
2019-01-13T19:47:06.738Z,16.87
2019-01-13T19:49:39.545Z,20.37
2019-01-13T19:52:09.806Z,20.17
2019-01-13T19:54:40.800Z,16.60
2019-01-13T19:57:10.938Z,11.40
2019-01-13T19:59:47.226Z,9.60
2019-01-13T20:02:29.706Z,13.03
2019-01-13T20:05:00.184Z,11.97
2019-01-13T20:07:30.451Z,13.83
2019-01-13T20:09:59.562Z,13.00
2019-01-13T20:12:29.041Z,13.67
2019-01-13T20:14:58.162Z,12.07
2019-01-13T20:17:27.370Z,12.90
2019-01-13T20:19:56.522Z,10.40
2019-01-13T20:22:25.722Z,9.63
2019-01-13T20:24:54.890Z,11.30
2019-01-13T20:27:24.161Z,12.50
2019-01-13T20:29:53.441Z,11.30
2019-01-13T20:32:22.641Z,10.57
2019-01-13T20:34:51.753Z,12.77
2019-01-13T20:37:20.923Z,13.07
2019-01-13T20:39:51.523Z,13.37
2019-01-13T20:42:25.082Z,19.53
2019-01-13T20:44:54.361Z,18.47
2019-01-13T20:47:23.521Z,19.00
2019-01-13T20:49:52.681Z,18.27
2019-01-13T20:52:21.841Z,14.07
2019-01-13T20:54:51.121Z,14.17
2019-01-13T20:57:20.684Z,15.90
2019-01-13T20:59:50.725Z,17.80
2019-01-13T21:02:19.893Z,12.80
2019-01-13T21:04:48.962Z,14.37
2019-01-13T21:07:18.241Z,18.07
2019-01-13T21:09:47.361Z,10.93
2019-01-13T21:12:16.482Z,8.03
2019-01-13T21:14:45.721Z,6.83
2019-01-13T21:17:16.349Z,8.87
2019-01-13T21:19:45.521Z,9.93
2019-01-13T21:22:14.688Z,4.77
2019-01-13T21:24:43.923Z,5.63
2019-01-13T21:27:12.961Z,6.47
2019-01-13T21:29:42.473Z,4.30
2019-01-13T21:32:11.666Z,4.57
2019-01-13T21:34:40.636Z,5.20
2019-01-13T21:37:12.441Z,5.70
2019-01-13T21:39:42.089Z,7.27
2019-01-13T21:42:15.641Z,9.07
2019-01-13T21:44:44.681Z,9.20
2019-01-13T21:47:13.681Z,11.17
2019-01-13T21:49:42.705Z,9.07
2019-01-13T21:52:11.809Z,13.07
2019-01-13T21:54:40.801Z,10.77
2019-01-13T21:57:09.889Z,6.87
2019-01-13T21:59:39.001Z,7.23
2019-01-13T22:02:08.122Z,3.20
2019-01-13T22:04:37.273Z,4.67
2019-01-13T22:07:06.241Z,6.07
2019-01-13T22:09:35.261Z,3.50
2019-01-13T22:12:04.569Z,5.90
2019-01-13T22:14:33.592Z,8.40
2019-01-13T22:17:02.548Z,8.80
2019-01-13T22:19:31.608Z,9.00
2019-01-13T22:22:00.783Z,9.93
2019-01-13T22:24:29.789Z,12.03
2019-01-13T22:26:58.829Z,8.63
2019-01-13T22:29:27.763Z,7.47
2019-01-13T22:31:57.081Z,10.27
2019-01-13T22:34:27.301Z,7.37
2019-01-13T22:36:56.386Z,7.30
2019-01-13T22:39:25.462Z,6.23
2019-01-13T22:41:54.328Z,7.53
2019-01-13T22:44:23.310Z,8.53
2019-01-13T22:46:52.302Z,8.40
2019-01-13T22:49:21.209Z,7.30
2019-01-13T22:51:50.042Z,9.10
2019-01-13T22:54:18.969Z,7.23
2019-01-13T22:56:47.989Z,4.37
2019-01-13T22:59:16.878Z,5.03
2019-01-13T23:01:47.157Z,3.53
2019-01-13T23:04:16.806Z,3.83
2019-01-13T23:06:45.750Z,4.37
2019-01-13T23:09:14.837Z,3.33
2019-01-13T23:11:46.689Z,3.20
2019-01-13T23:14:17.882Z,4.03
2019-01-13T23:16:46.853Z,3.30
2019-01-13T23:19:15.729Z,2.63
2019-01-13T23:21:44.709Z,3.73
2019-01-13T23:24:16.730Z,3.77
2019-01-13T23:26:47.109Z,3.83
2019-01-13T23:29:16.216Z,3.83
2019-01-13T23:31:45.221Z,3.93
2019-01-13T23:34:15.659Z,5.50
2019-01-13T23:36:44.836Z,5.07
2019-01-13T23:39:13.737Z,6.60
2019-01-13T23:41:42.704Z,5.67
2019-01-13T23:44:11.711Z,5.90
2019-01-13T23:46:40.668Z,5.93
2019-01-13T23:49:10.080Z,3.90
2019-01-13T23:51:39.069Z,6.50
2019-01-13T23:54:08.003Z,9.83
2019-01-13T23:56:36.989Z,4.30
2019-01-13T23:59:05.982Z,6.40
